Time;durP1;ratioP1;P1;durP2;ratioP2;P2;SDS_P1;SDS_P2;PMS_P1;PMS_P2;Temp;Humidity;BMP_temperature;BMP_pressure;BME280_temperature;BME280_humidity;BME280_pressure;Samples;Min_cycle;Max_cycle;Signal;HPM_P1;HPM_P2
2022/06/15 00:01:13;;;;;;;7.85;4.82;;;;;;;13.30;64.68;94033.06;4933959;29;20417;-58
2022/06/15 00:03:40;;;;;;;7.43;4.80;;;;;;;13.31;64.73;94022.81;4925626;29;20040;-59
2022/06/15 00:06:11;;;;;;;8.77;4.88;;;;;;;13.29;65.09;94030.69;4935288;29;20462;-59
2022/06/15 00:08:39;;;;;;;7.53;4.72;;;;;;;13.32;64.83;94024.34;4935644;29;20074;-59
2022/06/15 00:11:18;;;;;;;6.93;4.67;;;;;;;13.32;64.50;94024.34;4934227;29;20067;-59
2022/06/15 00:13:46;;;;;;;10.05;4.43;;;;;;;13.33;64.56;94031.41;4935758;29;20039;-59
2022/06/15 00:16:13;;;;;;;8.00;4.68;;;;;;;13.29;64.46;94025.97;4927564;29;20048;-58
2022/06/15 00:18:40;;;;;;;8.85;5.00;;;;;;;13.11;65.42;94023.63;4930667;29;20052;-58
2022/06/15 00:21:07;;;;;;;7.20;4.90;;;;;;;13.10;65.14;94022.09;4933967;29;20043;-58
2022/06/15 00:23:35;;;;;;;7.60;5.63;;;;;;;13.10;65.34;94021.28;4935404;29;20048;-57
2022/06/15 00:26:04;;;;;;;13.00;7.45;;;;;;;13.11;65.64;94023.63;4933537;29;20051;-57
2022/06/15 00:28:31;;;;;;;8.90;5.20;;;;;;;13.08;65.28;94020.94;4915637;29;20044;-57
2022/06/15 00:30:58;;;;;;;7.03;4.70;;;;;;;12.97;66.05;94015.69;4919234;29;20044;-56
2022/06/15 00:33:31;;;;;;;8.40;5.30;;;;;;;12.77;66.71;94013.75;4921159;29;20040;-57
2022/06/15 00:36:01;;;;;;;7.03;5.00;;;;;;;12.79;66.98;94016.09;4922319;29;20043;-56
2022/06/15 00:38:33;;;;;;;8.80;4.78;;;;;;;12.78;66.76;94011.78;4930510;29;20388;-57
2022/06/15 00:41:00;;;;;;;8.85;4.88;;;;;;;12.76;66.94;94008.69;4930323;29;20406;-57
2022/06/15 00:43:41;;;;;;;9.43;5.20;;;;;;;12.74;66.59;94017.38;4925492;29;20047;-57
2022/06/15 00:46:37;;;;;;;7.78;5.00;;;;;;;12.74;66.87;94013.84;4926917;29;20122;-57
2022/06/15 00:49:04;;;;;;;50.73;30.37;;;;;;;12.59;67.33;94007.88;4934579;29;20391;-58
2022/06/15 00:51:31;;;;;;;12.32;7.03;;;;;;;12.47;68.13;94014.03;4935210;29;20058;-58
2022/06/15 00:53:59;;;;;;;9.15;5.32;;;;;;;12.52;67.61;94016.28;4917498;29;20429;-57
2022/06/15 00:56:29;;;;;;;7.80;5.15;;;;;;;12.57;67.87;94013.78;4934788;29;20066;-58
2022/06/15 00:59:01;;;;;;;7.95;5.07;;;;;;;12.59;67.52;94016.88;4934324;29;20051;-56
2022/06/15 01:01:28;;;;;;;9.00;5.37;;;;;;;12.63;67.74;94019.56;4926071;29;20040;-58
2022/06/15 01:03:57;;;;;;;8.90;5.00;;;;;;;12.55;67.60;94018.19;4930047;29;20044;-58
2022/06/15 01:06:24;;;;;;;7.90;5.57;;;;;;;12.61;67.38;94018.47;4933717;29;20113;-58
2022/06/15 01:08:53;;;;;;;8.43;5.35;;;;;;;12.63;67.63;94022.31;4934465;29;20046;-57
2022/06/15 01:11:25;;;;;;;7.95;5.30;;;;;;;12.60;67.63;94012.19;4934278;29;20584;-57
2022/06/15 01:13:58;;;;;;;8.40;5.20;;;;;;;12.56;67.55;94009.50;4934308;29;20058;-58
2022/06/15 01:16:43;;;;;;;11.68;7.63;;;;;;;12.45;68.40;94008.94;4933668;29;20942;-58
2022/06/15 01:19:27;;;;;;;11.35;6.35;;;;;;;12.41;68.08;94008.25;4925448;29;20083;-57
2022/06/15 01:22:04;;;;;;;10.45;5.50;;;;;;;12.37;68.43;94005.59;4931920;29;20062;-58
2022/06/15 01:24:58;;;;;;;8.75;5.10;;;;;;;12.35;68.13;94004.44;4932928;29;20046;-57
2022/06/15 01:27:48;;;;;;;10.57;5.47;;;;;;;12.24;69.03;94012.16;4920881;29;20769;-57
2022/06/15 01:30:33;;;;;;;9.70;5.68;;;;;;;12.05;69.82;94006.19;4917807;29;20056;-57
2022/06/15 01:33:25;;;;;;;9.88;6.00;;;;;;;12.07;69.99;94000.28;4919742;29;20430;-57
2022/06/15 01:36:02;;;;;;;9.43;5.65;;;;;;;11.96;70.51;93995.78;4921658;29;20051;-58
2022/06/15 01:38:37;;;;;;;9.32;5.95;;;;;;;11.78;71.19;93998.81;4931204;29;20113;-58
2022/06/15 01:41:24;;;;;;;8.90;5.57;;;;;;;11.82;71.15;94001.50;4933606;29;20407;-57
2022/06/15 01:44:00;;;;;;;10.52;6.07;;;;;;;11.92;71.00;93997.03;4927426;29;20110;-57
2022/06/15 01:46:28;;;;;;;10.85;6.03;;;;;;;11.96;70.33;93995.78;4927672;29;20808;-57
2022/06/15 01:48:56;;;;;;;8.68;5.68;;;;;;;12.02;70.25;93998.03;4933964;29;20050;-58
2022/06/15 01:51:31;;;;;;;9.77;5.70;;;;;;;12.01;69.85;93990.97;4932949;29;20923;-57
2022/06/15 01:54:03;;;;;;;7.47;5.20;;;;;;;12.01;69.70;93990.97;4931794;29;20035;-57
2022/06/15 01:56:36;;;;;;;9.70;5.65;;;;;;;11.97;69.47;93988.28;4933785;29;20406;-57
2022/06/15 01:59:12;;;;;;;7.75;5.20;;;;;;;11.93;69.69;93990.34;4933114;29;20410;-57
2022/06/15 02:02:04;;;;;;;10.80;5.80;;;;;;;11.89;69.91;93992.38;4923600;29;20056;-57
2022/06/15 02:04:49;;;;;;;8.27;5.55;;;;;;;11.79;70.32;93992.13;4919691;29;21665;-58
2022/06/15 02:07:37;;;;;;;9.03;5.60;;;;;;;11.78;70.56;93979.56;4931786;29;20509;-57
2022/06/15 02:10:27;;;;;;;9.07;5.72;;;;;;;11.75;70.91;93983.19;4932955;29;20055;-57
2022/06/15 02:12:53;;;;;;;8.27;5.57;;;;;;;11.71;71.34;93987.19;4933438;29;20508;-57
2022/06/15 02:15:25;;;;;;;8.98;5.93;;;;;;;11.55;71.88;93982.34;4933020;29;20046;-57
2022/06/15 02:17:57;;;;;;;8.80;5.57;;;;;;;11.58;71.76;93993.28;4933319;29;20044;-57
2022/06/15 02:20:29;;;;;;;9.80;6.43;;;;;;;11.63;72.03;93992.06;4932481;29;20406;-57
2022/06/15 02:23:03;;;;;;;11.38;6.30;;;;;;;11.62;72.22;93989.72;4933068;29;20078;-57
2022/06/15 02:25:33;;;;;;;11.60;6.50;;;;;;;11.56;72.17;93992.16;4932684;29;20461;-58
2022/06/15 02:28:02;;;;;;;9.07;5.95;;;;;;;11.63;71.79;93988.50;4915930;29;20513;-57
2022/06/15 02:30:30;;;;;;;10.13;6.43;;;;;;;11.64;71.84;93985.34;4916972;29;20047;-57
2022/06/15 02:33:08;;;;;;;11.13;6.13;;;;;;;11.60;71.61;93985.41;4913749;29;20064;-57
2022/06/15 02:35:35;;;;;;;9.98;6.40;;;;;;;11.58;72.06;93982.31;4921780;29;20079;-58
2022/06/15 02:38:01;;;;;;;8.80;6.00;;;;;;;11.56;71.82;93978.44;4923441;29;20410;-57
2022/06/15 02:40:28;;;;;;;9.23;5.90;;;;;;;11.56;71.50;93981.19;4931549;29;20075;-57
2022/06/15 02:42:55;;;;;;;11.23;6.50;;;;;;;11.59;71.25;93977.59;4932993;29;20070;-57
2022/06/15 02:45:29;;;;;;;10.03;6.17;;;;;;;11.58;71.20;93976.81;4918694;29;20603;-57
2022/06/15 02:47:57;;;;;;;9.02;5.70;;;;;;;11.58;71.24;93982.31;4932455;29;20086;-55
2022/06/15 02:50:27;;;;;;;8.95;5.78;;;;;;;11.54;71.42;93976.09;4932900;29;20040;-57
2022/06/15 02:53:06;;;;;;;9.52;5.57;;;;;;;11.52;71.34;93978.47;4932705;29;20048;-57
2022/06/15 02:55:34;;;;;;;10.00;5.93;;;;;;;11.46;71.88;93969.16;4931993;29;20758;-58
2022/06/15 02:58:06;;;;;;;11.30;6.03;;;;;;;11.32;72.42;93970.19;4932317;29;20050;-57
2022/06/15 03:00:33;;;;;;;9.70;6.40;;;;;;;11.13;73.50;93962.69;4932901;29;20421;-57
2022/06/15 03:03:00;;;;;;;9.60;6.60;;;;;;;11.01;74.03;93964.06;4918839;29;20047;-57
2022/06/15 03:05:26;;;;;;;9.23;6.28;;;;;;;10.95;74.40;93962.97;4931700;29;20035;-58
2022/06/15 03:07:54;;;;;;;10.50;6.97;;;;;;;11.02;74.15;93967.56;4932539;29;20434;-57
2022/06/15 03:10:20;;;;;;;10.00;6.80;;;;;;;11.03;74.16;93969.91;4931825;29;20054;-57
2022/06/15 03:12:48;;;;;;;10.27;6.53;;;;;;;10.85;74.81;93970.19;4932425;29;20398;-58
2022/06/15 03:15:14;;;;;;;10.65;6.88;;;;;;;10.92;74.71;93972.81;4932209;29;20502;-57
2022/06/15 03:17:41;;;;;;;11.52;6.35;;;;;;;10.72;75.63;93971.94;4932563;29;20392;-58
2022/06/15 03:20:10;;;;;;;10.65;7.10;;;;;;;10.77;75.70;93971.50;4914816;29;20047;-58
2022/06/15 03:22:37;;;;;;;11.13;6.73;;;;;;;10.84;75.48;93970.59;4932721;29;20398;-57
2022/06/15 03:25:05;;;;;;;10.93;7.13;;;;;;;10.70;76.30;93969.63;4931769;29;20058;-58
2022/06/15 03:27:31;;;;;;;10.43;6.85;;;;;;;10.74;76.24;93972.31;4919016;29;20040;-57
2022/06/15 03:30:00;;;;;;;12.07;7.60;;;;;;;10.86;75.80;93979.97;4912974;29;20052;-57
2022/06/15 03:32:27;;;;;;;11.85;7.40;;;;;;;10.93;75.52;93968.88;4917031;29;20054;-58
2022/06/15 03:34:53;;;;;;;12.50;7.60;;;;;;;10.96;75.22;93972.75;4918661;29;20712;-58
2022/06/15 03:37:20;;;;;;;12.50;7.80;;;;;;;11.03;75.01;93980.09;4917465;29;20044;-57
2022/06/15 03:39:47;;;;;;;12.70;7.72;;;;;;;11.03;74.94;93975.41;4932468;29;20458;-57
2022/06/15 03:42:18;;;;;;;12.40;7.35;;;;;;;11.06;74.66;93982.78;4931416;29;20098;-57
2022/06/15 03:44:45;;;;;;;13.50;8.20;;;;;;;10.96;75.13;93987.25;4913537;29;20446;-57
2022/06/15 03:47:17;;;;;;;12.97;8.37;;;;;;;10.92;75.39;93986.53;4926993;29;20055;-58
2022/06/15 03:49:48;;;;;;;36.28;22.38;;;;;;;10.90;75.74;93977.94;4916037;29;20040;-58
2022/06/15 03:52:17;;;;;;;19.48;11.73;;;;;;;11.09;75.21;93979.22;4918199;29;20066;-57
2022/06/15 03:54:44;;;;;;;16.55;8.48;;;;;;;11.15;74.78;93985.03;4927521;29;20335;-57
2022/06/15 03:57:16;;;;;;;15.48;8.50;;;;;;;11.16;74.52;93986.56;4922910;29;20054;-57
2022/06/15 03:59:44;;;;;;;12.67;8.23;;;;;;;11.25;74.31;93986.00;4931866;29;20118;-58
2022/06/15 04:02:11;;;;;;;13.10;8.10;;;;;;;11.34;73.80;93989.00;4920388;29;20074;-57
2022/06/15 04:04:38;;;;;;;13.43;8.00;;;;;;;11.35;74.22;93991.34;4930503;29;20062;-57
2022/06/15 04:08:34;;;;;;;12.02;7.45;;;;;;;11.32;73.97;93988.66;4931444;29;20043;-57
2022/06/15 04:09:54;;;;;;;11.25;7.80;;;;;;;11.46;73.55;93984.88;4931859;29;20043;-57
2022/06/15 04:12:21;;;;;;;11.17;6.77;;;;;;;11.60;72.89;93985.41;4931747;29;20052;-58
2022/06/15 04:14:49;;;;;;;10.82;7.72;;;;;;;11.73;72.06;93984.78;4930660;29;20054;-57
2022/06/15 04:17:18;;;;;;;12.00;7.70;;;;;;;11.79;72.00;93985.84;4933499;29;20066;-57
2022/06/15 04:20:31;;;;;;;11.52;7.70;;;;;;;11.73;72.34;93993.03;4935403;29;20050;-58
2022/06/15 04:22:31;;;;;;;12.20;7.90;;;;;;;11.95;71.83;93985.97;4921222;29;20799;-58
2022/06/15 04:24:58;;;;;;;13.57;7.60;;;;;;;12.17;71.31;93978.06;4934346;29;20439;-56
2022/06/15 04:27:25;;;;;;;11.23;7.72;;;;;;;13.39;67.07;93983.59;4934841;29;20051;-57
2022/06/15 04:29:51;;;;;;;12.32;7.65;;;;;;;15.19;61.05;93978.53;4926502;29;20055;-58
2022/06/15 04:32:18;;;;;;;11.68;7.25;;;;;;;16.20;56.91;93967.66;4930491;29;20051;-58
2022/06/15 04:34:45;;;;;;;11.00;7.40;;;;;;;17.53;53.57;93965.38;4922886;29;20044;-58
2022/06/15 04:37:12;;;;;;;8.97;6.93;;;;;;;18.22;51.34;93969.59;4919950;29;20054;-58
2022/06/15 04:39:38;;;;;;;9.60;6.95;;;;;;;16.93;53.34;93964.56;4935163;29;20050;-58
2022/06/15 04:42:05;;;;;;;8.88;7.00;;;;;;;16.09;56.33;93968.03;4934389;29;20047;-58
2022/06/15 04:44:32;;;;;;;9.55;6.93;;;;;;;15.45;58.81;93976.50;4934841;29;20062;-58
2022/06/15 04:47:01;;;;;;;9.45;6.80;;;;;;;14.80;60.63;93971.50;4934748;29;20270;-58
2022/06/15 04:49:28;;;;;;;11.10;6.87;;;;;;;14.84;61.08;93970.16;4934820;29;20043;-58
2022/06/15 04:51:55;;;;;;;11.77;7.18;;;;;;;14.80;61.38;93977.78;4934894;29;20487;-58
2022/06/15 04:54:22;;;;;;;10.35;6.40;;;;;;;14.76;61.74;93975.13;4933872;29;20096;-58
2022/06/15 04:56:48;;;;;;;8.98;6.45;;;;;;;14.78;62.03;93974.69;4927415;29;20453;-58
2022/06/15 04:59:17;;;;;;;10.25;6.60;;;;;;;14.52;62.88;93974.63;4915092;29;20060;-58
2022/06/15 05:01:44;;;;;;;10.60;6.40;;;;;;;14.19;64.80;93983.06;4911328;29;20066;-58
2022/06/15 05:04:11;;;;;;;11.18;6.80;;;;;;;14.00;65.16;93989.50;4915908;29;20063;-58
2022/06/15 05:06:40;;;;;;;10.50;6.85;;;;;;;14.18;65.02;93983.50;4920431;29;20044;-58
2022/06/15 05:09:11;;;;;;;9.25;6.70;;;;;;;14.17;64.91;93984.72;4932896;29;20050;-57
2022/06/15 05:11:38;;;;;;;10.10;6.60;;;;;;;14.34;65.07;93991.72;4934613;29;20043;-57
2022/06/15 05:14:05;;;;;;;9.43;6.03;;;;;;;14.71;64.21;93980.44;4929573;29;20059;-56
2022/06/15 05:16:32;;;;;;;11.75;6.45;;;;;;;16.28;59.61;93974.50;4925925;29;20047;-57
2022/06/15 05:18:59;;;;;;;8.82;5.95;;;;;;;19.04;51.62;93986.59;4933823;29;20050;-57
2022/06/15 05:21:27;;;;;;;7.60;5.38;;;;;;;20.67;47.13;93978.91;4934624;29;20066;-59
2022/06/15 05:23:53;;;;;;;8.00;5.90;;;;;;;21.08;45.63;93975.53;4903373;29;20202;-59
2022/06/15 05:26:24;;;;;;;9.13;6.27;;;;;;;21.34;44.50;93984.06;4930972;29;20043;-58
2022/06/15 05:28:52;;;;;;;8.25;5.72;;;;;;;22.48;41.76;93978.72;4933411;29;20509;-57
2022/06/15 05:31:21;;;;;;;8.15;5.90;;;;;;;23.25;40.27;93979.97;4927712;29;20048;-58
2022/06/15 05:33:53;;;;;;;8.38;5.65;;;;;;;23.40;39.97;93979.03;4916911;29;20127;-58
2022/06/15 05:36:23;;;;;;;8.32;5.95;;;;;;;22.06;41.82;93972.38;4930542;29;20048;-58
2022/06/15 05:38:50;;;;;;;9.57;5.90;;;;;;;24.11;38.04;93973.66;4933225;29;20039;-58
2022/06/15 05:41:17;;;;;;;11.43;5.82;;;;;;;23.66;38.77;93978.97;4933294;29;20051;-58
2022/06/15 05:46:24;;;;;;;8.85;5.55;;;;;;;24.37;37.04;93967.88;4916712;29;20059;-58
2022/06/15 05:48:53;;;;;;;9.35;5.65;;;;;;;25.45;35.64;93972.38;4933692;29;20051;-58
2022/06/15 05:51:20;;;;;;;8.70;5.40;;;;;;;27.01;32.81;93973.66;4933117;29;20047;-58
2022/06/15 05:53:47;;;;;;;8.27;5.22;;;;;;;26.50;33.32;93965.47;4933217;29;20055;-58
2022/06/15 05:56:14;;;;;;;9.55;5.07;;;;;;;27.03;32.27;93976.72;4932275;29;20052;-58
2022/06/15 05:58:41;;;;;;;8.80;5.10;;;;;;;28.49;30.30;93971.72;4933550;29;20102;-59
2022/06/15 06:01:20;;;;;;;8.57;5.35;;;;;;;26.89;32.74;93978.59;4932769;29;20066;-58
2022/06/15 06:03:46;;;;;;;10.47;5.10;;;;;;;28.09;30.73;93974.25;4933514;29;20446;-58
2022/06/15 06:06:13;;;;;;;9.88;5.63;;;;;;;28.24;30.34;93979.50;4922580;29;20193;-58
2022/06/15 06:08:40;;;;;;;8.77;5.47;;;;;;;27.82;30.88;93981.72;4929787;29;20062;-58
2022/06/15 06:11:07;;;;;;;12.25;5.43;;;;;;;27.77;31.11;93976.88;4932453;29;20044;-58
2022/06/15 06:13:34;;;;;;;10.80;5.25;;;;;;;28.42;30.26;93972.34;4933516;29;20055;-58
2022/06/15 06:16:01;;;;;;;9.83;5.30;;;;;;;29.18;29.25;93966.75;4915883;29;20040;-58
2022/06/15 06:18:28;;;;;;;11.38;5.50;;;;;;;29.50;28.71;93968.78;4913885;29;20052;-58
2022/06/15 06:20:55;;;;;;;10.57;5.40;;;;;;;29.47;28.97;93968.56;4910780;29;20048;-58
2022/06/15 06:23:21;;;;;;;9.95;5.40;;;;;;;30.04;27.94;93968.38;4919888;29;20703;-59
2022/06/15 06:25:51;;;;;;;7.85;4.78;;;;;;;29.35;29.02;93967.22;4919325;29;20047;-59
2022/06/15 06:28:21;;;;;;;10.13;5.13;;;;;;;29.01;29.42;93966.94;4932320;29;20052;-59
2022/06/15 06:30:47;;;;;;;9.20;5.30;;;;;;;28.06;31.56;93976.09;4932764;29;20074;-59
2022/06/15 06:33:14;;;;;;;9.35;5.35;;;;;;;29.11;30.19;93982.25;4922470;29;20054;-58
2022/06/15 06:35:41;;;;;;;8.35;4.82;;;;;;;29.06;30.97;93975.34;4929452;29;20446;-59
2022/06/15 06:38:12;;;;;;;8.15;4.93;;;;;;;28.60;30.13;93985.75;4931846;29;20047;-58
2022/06/15 06:40:39;;;;;;;9.57;5.50;;;;;;;27.76;31.51;93983.81;4932808;29;20050;-58
2022/06/15 06:43:06;;;;;;;8.10;5.00;;;;;;;28.38;30.31;93983.19;4931939;29;20050;-59
2022/06/15 06:45:33;;;;;;;8.38;4.80;;;;;;;29.98;28.62;93978.25;4932553;29;20508;-58
2022/06/15 06:48:00;;;;;;;7.45;5.07;;;;;;;30.62;27.28;93971.63;4931795;29;20043;-59
2022/06/15 06:50:28;;;;;;;7.88;4.68;;;;;;;31.41;26.23;93970.66;4921700;29;20052;-59
2022/06/15 06:52:55;;;;;;;6.80;4.47;;;;;;;32.22;25.53;93971.72;4930301;29;20056;-59
2022/06/15 06:55:26;;;;;;;6.82;4.57;;;;;;;32.99;24.92;93977.78;4931427;29;21581;-59
2022/06/15 06:57:57;;;;;;;5.60;4.00;;;;;;;33.91;23.38;93970.78;4932314;29;20043;-59
2022/06/15 07:00:25;;;;;;;7.32;4.18;;;;;;;35.10;21.62;93973.75;4931413;29;20101;-59
2022/06/15 07:02:51;;;;;;;6.20;3.88;;;;;;;33.50;23.46;93978.31;4932376;29;20050;-59
2022/06/15 07:05:23;;;;;;;6.23;3.97;;;;;;;32.24;24.70;93977.59;4931394;29;20081;-59
2022/06/15 07:07:50;;;;;;;6.40;4.05;;;;;;;31.69;25.42;93974.88;4932526;29;20040;-59
2022/06/15 07:10:17;;;;;;;6.30;4.00;;;;;;;31.93;25.06;93973.72;4914844;29;20039;-59
2022/06/15 07:12:44;;;;;;;7.03;4.10;;;;;;;32.55;24.96;93977.78;4932341;29;20043;-59
2022/06/15 07:15:13;;;;;;;5.50;3.70;;;;;;;33.07;24.57;93979.91;4931467;29;20058;-59
2022/06/15 07:17:40;;;;;;;5.60;4.10;;;;;;;32.63;24.15;93983.50;4932059;29;20106;-59
2022/06/15 07:20:09;;;;;;;6.53;4.15;;;;;;;33.30;23.91;93982.81;4931705;29;20061;-59
2022/06/15 07:22:36;;;;;;;5.78;3.90;;;;;;;33.41;23.34;93976.78;4932319;29;20058;-59
2022/06/15 07:25:05;;;;;;;7.68;4.00;;;;;;;30.64;27.17;93980.34;4918356;29;20048;-59
2022/06/15 07:27:34;;;;;;;6.13;4.05;;;;;;;33.21;24.93;93984.13;4932389;29;20050;-59
2022/06/15 07:30:04;;;;;;;5.80;3.90;;;;;;;33.77;23.50;93979.50;4931775;29;20059;-59
2022/06/15 07:32:31;;;;;;;5.30;4.10;;;;;;;32.20;25.43;93979.28;4932303;29;20066;-59
2022/06/15 07:34:58;;;;;;;6.18;4.07;;;;;;;31.90;26.03;93977.69;4923063;29;20382;-59
2022/06/15 07:37:25;;;;;;;6.80;4.20;;;;;;;31.74;26.71;93978.91;4932002;29;20051;-59
2022/06/15 07:40:12;;;;;;;6.90;4.32;;;;;;;31.82;26.11;93980.47;4931635;29;20058;-59
2022/06/15 07:42:40;;;;;;;5.90;4.20;;;;;;;31.24;27.43;93976.69;4931852;29;20065;-59
2022/06/15 07:45:08;;;;;;;5.45;4.20;;;;;;;30.90;28.25;93987.28;4931698;29;20808;-59
2022/06/15 07:50:21;;;;;;;7.70;4.28;;;;;;;32.47;25.71;93979.03;4931580;29;20035;-59
2022/06/15 07:53:06;;;;;;;5.80;4.30;;;;;;;32.41;26.68;93984.88;4904349;29;20683;-58
2022/06/15 07:55:37;;;;;;;6.13;4.00;;;;;;;33.40;25.25;93983.78;4919090;29;20055;-59
2022/06/15 07:58:05;;;;;;;6.13;3.80;;;;;;;33.49;24.96;93982.50;4901888;29;20067;-59
2022/06/15 08:00:34;;;;;;;5.43;3.85;;;;;;;32.54;26.70;93986.84;4924171;29;20063;-59
2022/06/15 08:03:01;;;;;;;5.55;4.05;;;;;;;33.19;25.93;93984.69;4924985;29;20043;-59
2022/06/15 08:05:31;;;;;;;7.07;4.13;;;;;;;33.09;25.46;93986.56;4935305;29;20055;-59
2022/06/15 08:08:04;;;;;;;5.77;3.60;;;;;;;32.74;26.30;93977.50;4935120;29;20044;-59
2022/06/15 08:10:31;;;;;;;7.20;5.30;;;;;;;35.71;22.86;93971.91;4921967;29;20040;-59
2022/06/15 08:12:58;;;;;;;6.35;4.50;;;;;;;30.26;28.65;93975.66;4935225;29;20499;-59
2022/06/15 08:15:24;;;;;;;5.65;3.67;;;;;;;34.53;23.43;93975.09;4935428;29;20039;-59
2022/06/15 08:17:56;;;;;;;4.97;3.92;;;;;;;36.83;21.26;93974.91;4935435;29;20432;-59
2022/06/15 08:20:28;;;;;;;6.60;3.60;;;;;;;37.58;20.60;93971.66;4918095;29;20239;-59
2022/06/15 08:23:01;;;;;;;6.05;3.92;;;;;;;35.60;21.84;93968.16;4935257;29;20055;-59
2022/06/15 08:25:39;;;;;;;6.35;3.92;;;;;;;37.70;19.93;93971.88;4934232;29;20672;-59
2022/06/15 08:28:08;;;;;;;4.95;3.42;;;;;;;38.01;19.68;93974.25;4920299;29;20070;-59
2022/06/15 08:30:36;;;;;;;5.80;3.47;;;;;;;38.91;19.30;93968.84;4935354;29;20039;-59
2022/06/15 08:33:05;;;;;;;6.17;3.17;;;;;;;40.72;16.43;93974.44;4930272;29;20062;-59
2022/06/15 08:35:32;;;;;;;5.03;3.30;;;;;;;40.52;16.63;93973.06;4929254;29;20048;-58
2022/06/15 08:37:59;;;;;;;4.90;2.60;;;;;;;40.23;15.30;93970.38;4929265;29;20517;-58
2022/06/15 08:40:34;;;;;;;4.78;2.63;;;;;;;40.17;15.45;93969.91;4934848;29;20128;-59
2022/06/15 08:43:13;;;;;;;21.52;3.60;;;;;;;35.94;21.21;93975.34;4934393;29;20063;-57
2022/06/15 08:45:43;;;;;;;7.43;3.00;;;;;;;39.41;18.26;93976.06;4934852;29;20106;-57
2022/06/15 08:48:58;;;;;;;5.60;2.75;;;;;;;40.23;15.30;93965.38;4933824;29;20056;-59
2022/06/15 08:51:44;;;;;;;4.28;2.40;;;;;;;41.57;14.73;93971.31;4858664;29;20055;-59
2022/06/15 08:54:29;;;;;;;4.68;2.58;;;;;;;41.18;13.92;93972.44;4913473;29;20491;-59
2022/06/15 08:57:00;;;;;;;4.10;2.58;;;;;;;40.37;14.80;93973.47;4919059;29;20037;-58
2022/06/15 08:59:43;;;;;;;3.60;2.30;;;;;;;40.77;14.28;93974.75;4930910;29;20593;-59
2022/06/15 09:02:33;;;;;;;4.80;3.00;;;;;;;39.92;15.26;93965.34;4920482;29;20051;-58
2022/06/15 09:05:09;;;;;;;4.65;3.05;;;;;;;37.80;18.21;93979.75;4933735;29;20054;-58
2022/06/15 09:07:58;;;;;;;5.88;3.58;;;;;;;33.15;22.91;93981.47;4934778;29;20044;-59
2022/06/15 09:10:40;;;;;;;7.47;3.70;;;;;;;31.76;24.88;93985.53;4918173;29;20746;-59
2022/06/15 09:13:36;;;;;;;4.23;3.33;;;;;;;34.81;20.02;93984.69;4923431;29;20044;-58
2022/06/15 09:16:17;;;;;;;5.72;2.97;;;;;;;38.71;16.50;93977.44;4932650;29;20046;-58
2022/06/15 09:19:07;;;;;;;5.65;2.90;;;;;;;35.79;18.06;93973.38;4934212;29;20055;-58
2022/06/15 09:21:41;;;;;;;4.40;2.70;;;;;;;38.80;15.39;93983.78;4927879;29;20065;-59
2022/06/15 09:24:16;;;;;;;5.85;2.80;;;;;;;40.97;14.07;93970.34;4927240;29;20052;-59
2022/06/15 09:26:53;;;;;;;5.30;2.80;;;;;;;33.90;19.91;93977.81;4925425;29;20036;-58
2022/06/15 09:29:33;;;;;;;3.75;2.80;;;;;;;38.03;15.92;93985.09;4930880;29;20048;-58
2022/06/15 09:32:21;;;;;;;4.72;2.85;;;;;;;37.35;16.36;93980.56;4906123;29;20103;-58
2022/06/15 09:34:57;;;;;;;3.95;2.60;;;;;;;39.04;14.68;93976.25;4931499;29;20056;-58
2022/06/15 09:37:28;;;;;;;4.25;2.47;;;;;;;37.38;15.96;93984.34;4933190;29;20132;-58
2022/06/15 09:39:55;;;;;;;6.40;2.87;;;;;;;38.00;17.19;93977.72;4933803;29;20047;-58
2022/06/15 09:42:43;;;;;;;4.68;2.60;;;;;;;40.26;13.89;93969.88;4932834;29;20518;-60
2022/06/15 09:45:23;;;;;;;6.05;2.70;;;;;;;40.08;14.47;93977.97;4933496;29;20050;-59
2022/06/15 09:48:20;;;;;;;3.42;2.40;;;;;;;41.11;13.23;93968.41;4933723;29;20043;-60
2022/06/15 09:50:59;;;;;;;5.43;2.70;;;;;;;41.98;12.27;93971.00;4932942;29;20094;-60
2022/06/15 09:53:26;;;;;;;4.77;2.53;;;;;;;40.78;12.94;93967.63;4932944;29;20066;-60
2022/06/15 09:55:58;;;;;;;4.45;2.67;;;;;;;41.50;12.76;93970.91;4933568;29;20376;-60
2022/06/15 09:58:56;;;;;;;3.70;2.50;;;;;;;40.56;13.60;93972.59;4932685;29;20534;-59
2022/06/15 10:01:26;;;;;;;5.10;2.70;;;;;;;39.52;14.39;93966.84;4919073;29;20079;-60
2022/06/15 10:03:56;;;;;;;4.43;2.58;;;;;;;40.20;14.25;93974.47;4919232;29;20507;-60
2022/06/15 10:06:47;;;;;;;4.30;2.70;;;;;;;39.75;14.61;93969.19;4932674;29;20406;-60
2022/06/15 10:09:17;;;;;;;5.82;2.90;;;;;;;38.61;16.16;93967.34;4932878;29;20046;-59
2022/06/15 10:12:55;;;;;;;4.60;2.80;;;;;;;39.49;14.90;93962.31;4933433;29;20047;-59
2022/06/15 10:14:43;;;;;;;5.85;2.80;;;;;;;39.36;13.65;93969.25;4931769;29;20054;-59
2022/06/15 10:17:30;;;;;;;5.95;2.80;;;;;;;40.38;13.53;93969.97;4932709;29;20057;-59
2022/06/15 10:19:58;;;;;;;3.90;2.67;;;;;;;40.89;13.37;93970.56;4932695;29;20051;-58
2022/06/15 10:22:33;;;;;;;4.80;2.80;;;;;;;40.06;15.14;93968.47;4931892;29;20048;-59
2022/06/15 10:25:04;;;;;;;4.88;3.15;;;;;;;36.11;18.32;93963.19;4932357;29;20043;-59
2022/06/15 10:27:34;;;;;;;4.53;2.90;;;;;;;37.47;16.43;93960.75;4932918;29;20051;-59
2022/06/15 10:30:18;;;;;;;3.88;2.90;;;;;;;38.53;15.82;93961.75;4932405;29;20046;-59
2022/06/15 10:33:12;;;;;;;5.77;2.90;;;;;;;38.58;15.96;93959.94;4931501;29;20043;-59
2022/06/15 10:35:39;;;;;;;3.55;2.55;;;;;;;37.37;16.51;93960.69;4931073;29;20051;-59
2022/06/15 10:38:16;;;;;;;4.65;2.88;;;;;;;37.17;15.41;93964.78;4932520;29;20410;-58
2022/06/15 10:40:58;;;;;;;5.68;2.80;;;;;;;36.06;17.58;93966.28;4922084;29;20044;-58
2022/06/15 10:43:31;;;;;;;4.13;3.00;;;;;;;36.72;16.15;93961.84;4903606;29;21695;-58
2022/06/15 10:46:05;;;;;;;5.40;2.90;;;;;;;36.10;16.00;93946.63;4916812;29;20044;-59
2022/06/15 10:48:54;;;;;;;5.82;3.10;;;;;;;35.44;18.65;93952.47;4918832;29;20047;-58
2022/06/15 10:51:38;;;;;;;5.10;3.15;;;;;;;35.21;18.43;93949.75;4906429;29;20039;-58
2022/06/15 10:54:16;;;;;;;4.85;3.08;;;;;;;34.76;18.94;93948.63;4915437;29;20059;-58
2022/06/15 11:02:39;;;;;;;6.25;3.70;;;;;;;29.69;23.35;93941.19;4931324;29;20429;-58
2022/06/15 11:05:15;;;;;;;9.27;3.30;;;;;;;30.71;23.39;93944.91;4931666;29;20051;-58
2022/06/15 11:07:48;;;;;;;6.72;3.50;;;;;;;31.79;22.01;93939.03;4932322;29;20490;-58
2022/06/15 11:10:38;;;;;;;5.28;3.40;;;;;;;32.44;22.79;93944.75;4932153;29;20058;-58
2022/06/15 11:13:17;;;;;;;4.47;3.30;;;;;;;31.54;21.90;93940.72;4931699;29;20051;-58
2022/06/15 11:18:40;;;;;;;5.05;3.58;;;;;;;30.48;23.15;93936.13;4931259;29;20499;-58
2022/06/15 11:21:19;;;;;;;4.82;3.60;;;;;;;31.01;22.62;93933.19;4930916;29;20051;-59
2022/06/15 11:23:51;;;;;;;5.85;3.55;;;;;;;30.99;22.76;93922.41;4932340;29;20048;-59
2022/06/15 11:29:41;;;;;;;5.43;3.50;;;;;;;32.07;22.09;93934.69;4931991;29;20048;-59
2022/06/15 11:32:26;;;;;;;4.93;3.42;;;;;;;32.61;21.06;93938.59;4930670;29;20050;-59
2022/06/15 11:35:08;;;;;;;5.43;3.35;;;;;;;32.50;21.31;93935.31;4923547;29;20056;-59
2022/06/15 11:37:44;;;;;;;5.28;3.40;;;;;;;32.20;21.38;93939.53;4931078;29;20063;-59
2022/06/15 11:40:20;;;;;;;4.73;3.27;;;;;;;31.01;22.58;93936.03;4925083;29;20062;-59
2022/06/15 11:42:51;;;;;;;6.40;3.20;;;;;;;30.85;22.62;93933.00;4913088;29;20070;-59
2022/06/15 11:45:32;;;;;;;5.30;3.35;;;;;;;30.65;23.52;93933.72;4915572;29;20715;-59
2022/06/15 11:48:14;;;;;;;5.10;3.30;;;;;;;30.16;23.14;93932.09;4913161;29;20059;-59
2022/06/15 11:50:55;;;;;;;5.80;3.35;;;;;;;30.50;23.36;93936.34;4918708;29;20418;-58
2022/06/15 11:53:57;;;;;;;4.87;3.30;;;;;;;31.02;23.95;93929.03;4931257;29;20735;-59
2022/06/15 11:56:32;;;;;;;6.53;3.47;;;;;;;31.11;22.95;93934.25;4931375;29;20431;-59
2022/06/15 11:59:22;;;;;;;5.45;3.30;;;;;;;31.75;22.50;93940.69;4919464;29;20044;-58
2022/06/15 12:02:23;;;;;;;6.65;3.60;;;;;;;31.35;23.45;93926.72;4911864;29;20049;-59
2022/06/15 12:05:17;;;;;;;4.80;3.53;;;;;;;31.32;22.79;93933.50;4930009;29;20106;-59
2022/06/15 12:08:00;;;;;;;6.13;3.73;;;;;;;31.18;22.41;93925.03;4931240;29;20138;-58
2022/06/15 12:10:41;;;;;;;5.00;3.55;;;;;;;30.90;23.09;93920.03;4931093;29;20675;-59
2022/06/15 12:13:20;;;;;;;5.90;3.50;;;;;;;31.54;22.88;93923.69;4930298;29;20046;-59
2022/06/15 12:15:55;;;;;;;5.35;3.30;;;;;;;31.50;22.40;93926.13;4904404;29;20402;-59